Time;durP1;ratioP1;P1;durP2;ratioP2;P2;SDS_P1;SDS_P2;PMS_P1;PMS_P2;Temp;Humidity;BMP_temperature;BMP_pressure;BME280_temperature;BME280_humidity;BME280_pressure;Samples;Min_cycle;Max_cycle;Signal;HPM_P1;HPM_P2
2022/12/12 00:01:35;;;;;;;32.67;14.90;;;-3274.60;93.60;;;;;;5022548;28;20388;-74
2022/12/12 00:04:01;;;;;;;33.15;14.50;;;-3274.60;93.50;;;;;;5023254;28;20029;-73
2022/12/12 00:06:26;;;;;;;29.58;13.95;;;-3274.60;93.40;;;;;;5037142;28;20111;-73
2022/12/12 00:08:52;;;;;;;31.15;14.48;;;-3274.70;93.40;;;;;;5034539;28;20047;-73
2022/12/12 00:11:19;;;;;;;28.58;13.40;;;-3274.60;93.30;;;;;;5023792;28;20028;-73
2022/12/12 00:13:45;;;;;;;28.65;13.63;;;-3274.70;93.20;;;;;;5030555;28;20032;-72
2022/12/12 00:16:11;;;;;;;32.25;14.48;;;-3274.70;93.20;;;;;;5033931;28;20405;-74
2022/12/12 00:18:37;;;;;;;28.55;13.82;;;-3274.70;93.10;;;;;;5034591;28;20104;-73
2022/12/12 00:21:06;;;;;;;33.22;14.00;;;-3274.70;93.00;;;;;;5029635;28;20450;-73
2022/12/12 00:23:31;;;;;;;31.80;14.27;;;-3274.70;93.00;;;;;;5035996;28;20429;-74
2022/12/12 00:26:04;;;;;;;28.60;13.20;;;-3274.80;93.10;;;;;;5027566;28;20103;-74
2022/12/12 00:28:30;;;;;;;26.33;13.35;;;-3274.70;93.10;;;;;;5025925;28;20041;-73
2022/12/12 00:30:55;;;;;;;25.65;13.25;;;-3274.80;93.10;;;;;;5028284;28;20059;-73
2022/12/12 00:33:21;;;;;;;31.70;15.20;;;-3274.80;92.90;;;;;;5028182;28;20025;-74
2022/12/12 00:35:53;;;;;;;28.58;14.68;;;-3274.80;92.90;;;;;;5027071;28;20029;-73
2022/12/12 00:38:21;;;;;;;31.40;14.02;;;-3274.80;92.90;;;;;;5026658;28;20048;-73
2022/12/12 00:40:47;;;;;;;31.23;15.05;;;-3274.90;93.00;;;;;;5011992;28;20033;-74
2022/12/12 00:43:13;;;;;;;30.58;14.13;;;-3274.90;92.90;;;;;;5025560;28;20041;-75
2022/12/12 00:45:39;;;;;;;30.38;14.27;;;-3274.80;92.90;;;;;;5025586;28;20091;-73
2022/12/12 00:48:05;;;;;;;28.00;14.13;;;-3274.80;92.90;;;;;;5039183;28;20099;-73
2022/12/12 00:50:32;;;;;;;30.60;14.85;;;-3274.90;92.90;;;;;;5022249;28;20096;-75
2022/12/12 00:52:57;;;;;;;30.80;14.60;;;-3274.90;92.80;;;;;;5027098;28;20525;-73
2022/12/12 00:55:24;;;;;;;32.08;15.52;;;-3275.00;92.80;;;;;;5020384;28;20101;-74
2022/12/12 00:57:49;;;;;;;31.35;14.68;;;-3274.90;92.60;;;;;;5032917;28;20506;-74
2022/12/12 01:00:16;;;;;;;36.35;15.10;;;-3274.90;92.70;;;;;;5021209;28;20116;-75
2022/12/12 01:02:42;;;;;;;32.55;13.95;;;-3274.90;92.50;;;;;;5027122;28;20037;-73
2022/12/12 01:05:08;;;;;;;29.45;13.80;;;-3274.90;92.60;;;;;;5031865;28;20086;-73
2022/12/12 01:07:33;;;;;;;30.08;14.75;;;-3274.90;92.60;;;;;;5026372;28;20048;-73
2022/12/12 01:09:59;;;;;;;31.05;15.10;;;-3274.90;92.60;;;;;;5025464;28;20095;-73
2022/12/12 01:12:24;;;;;;;27.83;13.63;;;-3274.90;92.70;;;;;;5025247;28;20055;-73
2022/12/12 01:14:50;;;;;;;32.70;13.57;;;-3274.90;92.80;;;;;;5038175;28;20022;-74
2022/12/12 01:17:15;;;;;;;28.08;13.82;;;-3274.90;92.90;;;;;;5030087;28;20088;-74
2022/12/12 01:19:41;;;;;;;34.22;15.35;;;-3274.90;92.90;;;;;;5024998;28;20116;-73
2022/12/12 01:22:07;;;;;;;29.65;14.80;;;-3274.80;92.90;;;;;;5024029;28;20073;-75
2022/12/12 01:24:32;;;;;;;26.25;13.55;;;-3274.80;93.00;;;;;;5029107;28;20129;-73
2022/12/12 01:26:57;;;;;;;25.67;13.25;;;-3274.80;93.20;;;;;;5025983;28;20038;-75
2022/12/12 01:29:23;;;;;;;29.27;13.48;;;-3274.70;93.20;;;;;;5026988;28;20111;-73
2022/12/12 01:31:48;;;;;;;27.48;14.55;;;-3274.70;93.40;;;;;;5023938;28;20073;-74
2022/12/12 01:34:14;;;;;;;29.58;13.60;;;-3274.70;93.60;;;;;;5019597;28;20021;-74
2022/12/12 01:36:39;;;;;;;27.13;13.65;;;-3274.70;93.70;;;;;;5025228;28;20025;-73
2022/12/12 01:39:05;;;;;;;29.23;13.98;;;-3274.60;93.70;;;;;;5020542;28;20033;-74
2022/12/12 01:41:31;;;;;;;28.17;13.82;;;-3274.60;93.80;;;;;;5023644;28;20048;-73
2022/12/12 01:44:01;;;;;;;32.25;14.27;;;-3274.50;93.80;;;;;;5021187;28;20029;-73
2022/12/12 01:46:40;;;;;;;28.95;13.82;;;-3274.50;93.80;;;;;;5026747;28;20025;-74
2022/12/12 01:49:14;;;;;;;29.80;14.18;;;-3274.50;93.90;;;;;;5022874;28;20107;-74
2022/12/12 01:51:41;;;;;;;29.40;13.40;;;-3274.40;94.00;;;;;;5029803;28;20072;-75
2022/12/12 01:54:13;;;;;;;33.97;14.68;;;-3274.40;94.20;;;;;;5028231;28;20033;-76
2022/12/12 01:56:42;;;;;;;30.73;14.32;;;-3274.40;94.10;;;;;;5029322;28;20030;-73
2022/12/12 01:59:11;;;;;;;33.95;14.07;;;-3274.30;94.10;;;;;;5021596;28;20238;-74
2022/12/12 02:01:38;;;;;;;31.90;14.20;;;-3274.30;94.20;;;;;;5029730;28;20326;-73
2022/12/12 02:04:04;;;;;;;32.60;14.27;;;-3274.30;94.30;;;;;;5024092;28;20513;-73
2022/12/12 02:06:30;;;;;;;32.38;14.65;;;-3274.30;94.50;;;;;;5031928;28;20121;-73
2022/12/12 02:08:59;;;;;;;33.78;15.00;;;-3274.30;94.50;;;;;;5036985;28;20130;-73
2022/12/12 02:11:31;;;;;;;31.83;14.75;;;-3274.30;94.50;;;;;;5027198;28;20034;-74
2022/12/12 02:13:57;;;;;;;32.50;15.48;;;-3274.30;94.60;;;;;;5025199;28;20501;-75
2022/12/12 02:16:44;;;;;;;30.33;14.82;;;-3274.20;94.60;;;;;;5021803;28;20033;-73
2022/12/12 02:19:28;;;;;;;33.88;14.10;;;-3274.20;94.70;;;;;;5024468;28;20058;-73
2022/12/12 02:22:31;;;;;;;29.45;14.80;;;-3274.20;94.70;;;;;;5028454;28;20045;-73
2022/12/12 02:25:27;;;;;;;30.83;14.15;;;-3274.20;94.70;;;;;;5028210;28;20057;-73
2022/12/12 02:27:55;;;;;;;30.02;13.57;;;-3274.20;94.70;;;;;;5020334;28;20025;-74
2022/12/12 02:30:27;;;;;;;34.47;14.77;;;-3274.10;94.70;;;;;;5021028;28;20358;-74
2022/12/12 02:33:04;;;;;;;29.48;14.25;;;-3274.10;94.90;;;;;;5017922;28;20476;-73
2022/12/12 02:36:11;;;;;;;32.08;15.10;;;-3274.10;95.00;;;;;;5019852;28;20051;-74
2022/12/12 02:38:48;;;;;;;30.13;13.38;;;-3274.10;95.00;;;;;;5026039;28;20029;-74
2022/12/12 02:41:36;;;;;;;34.03;14.55;;;-3274.10;95.00;;;;;;5025209;28;20033;-75
2022/12/12 02:44:26;;;;;;;27.15;14.05;;;-3274.00;95.10;;;;;;5025427;28;20037;-73
2022/12/12 02:47:04;;;;;;;36.53;14.73;;;-3274.00;95.30;;;;;;5025522;28;20028;-73
2022/12/12 02:49:50;;;;;;;33.95;14.60;;;-3274.00;95.40;;;;;;5021658;28;20037;-73
2022/12/12 02:52:16;;;;;;;32.30;15.38;;;-3273.90;95.30;;;;;;5009647;28;20022;-74
2022/12/12 02:54:42;;;;;;;27.55;13.98;;;-3273.80;95.30;;;;;;5026508;28;20100;-74
2022/12/12 02:57:20;;;;;;;30.65;13.77;;;-3273.70;95.30;;;;;;5026727;28;20101;-74
2022/12/12 02:59:55;;;;;;;31.60;14.57;;;-3273.60;95.40;;;;;;5013133;28;20545;-73
2022/12/12 03:02:43;;;;;;;31.67;14.55;;;-3273.60;95.60;;;;;;5013052;28;20026;-73
2022/12/12 03:09:01;;;;;;;28.40;13.57;;;-3273.30;95.70;;;;;;5020783;28;20112;-73
2022/12/12 03:12:00;;;;;;;27.80;14.52;;;-3273.20;95.70;;;;;;5022304;28;20169;-73
2022/12/12 03:14:47;;;;;;;29.65;12.75;;;-3273.10;95.80;;;;;;5032032;28;20429;-73
2022/12/12 03:17:38;;;;;;;30.83;13.73;;;-3273.00;95.90;;;;;;5034924;28;20087;-73
2022/12/12 03:20:25;;;;;;;33.65;13.77;;;-3273.00;96.00;;;;;;5031966;28;20051;-73
2022/12/12 03:22:56;;;;;;;28.33;14.20;;;-3273.00;96.10;;;;;;5033505;28;20048;-73
2022/12/12 03:25:35;;;;;;;33.38;14.63;;;-3273.00;96.20;;;;;;5029419;28;20082;-74
2022/12/12 03:28:04;;;;;;;35.45;14.57;;;-3272.90;96.20;;;;;;5029971;28;20033;-74
2022/12/12 03:30:34;;;;;;;29.70;14.18;;;-3272.90;96.30;;;;;;5021402;28;20422;-73
2022/12/12 03:33:08;;;;;;;33.70;13.95;;;-3272.90;96.30;;;;;;5027640;28;20090;-72
2022/12/12 03:35:45;;;;;;;36.60;14.85;;;-3272.90;96.30;;;;;;5029634;28;20057;-72
2022/12/12 03:38:16;;;;;;;34.88;14.95;;;-3272.90;96.40;;;;;;5025513;28;20385;-71
2022/12/12 03:40:57;;;;;;;;;;;-3272.90;96.40;;;;;;5015218;28;20386;-72
2022/12/12 03:43:34;;;;;;;33.05;13.18;;;-3273.00;96.50;;;;;;5016851;28;19935;-72
2022/12/12 03:46:13;;;;;;;34.80;14.00;;;-3273.00;96.60;;;;;;5039404;28;20032;-71
2022/12/12 03:49:10;;;;;;;34.50;15.05;;;-3273.00;96.60;;;;;;5025845;28;20031;-73
2022/12/12 03:51:41;;;;;;;38.78;15.15;;;-3273.10;96.70;;;;;;5034883;28;20103;-73
2022/12/12 03:54:10;;;;;;;;;;;-3273.20;96.80;;;;;;5027391;28;20099;-72
2022/12/12 03:56:46;;;;;;;37.28;13.82;;;-3273.20;96.70;;;;;;5027681;28;19905;-72
2022/12/12 03:59:14;;;;;;;31.88;14.90;;;-3273.20;96.70;;;;;;5024679;28;20035;-73
2022/12/12 04:01:56;;;;;;;38.58;14.82;;;-3273.20;96.60;;;;;;5031586;28;20385;-72
2022/12/12 04:04:53;;;;;;;37.25;15.55;;;-3273.30;96.80;;;;;;5037972;28;20037;-72
2022/12/12 04:07:23;;;;;;;36.95;14.05;;;-3273.30;96.80;;;;;;5027608;28;20109;-72
2022/12/12 04:12:59;;;;;;;39.42;15.77;;;-3273.40;96.80;;;;;;5022460;28;20107;-72
2022/12/12 04:15:47;;;;;;;36.10;15.10;;;-3273.40;96.80;;;;;;5019511;28;20062;-72
2022/12/12 04:18:32;;;;;;;38.90;15.52;;;-3273.40;96.80;;;;;;5027705;28;20082;-73
2022/12/12 04:24:01;;;;;;;34.58;13.65;;;-3273.30;96.80;;;;;;5028828;28;20599;-71
2022/12/12 04:26:48;;;;;;;34.78;15.65;;;-3273.30;96.80;;;;;;5029196;28;20472;-72
2022/12/12 04:29:29;;;;;;;35.88;15.10;;;-3273.20;96.80;;;;;;5022618;28;20120;-72
2022/12/12 04:31:54;;;;;;;;;;;-3273.30;96.90;;;;;;5016157;28;20372;-71
2022/12/12 04:34:38;;;;;;;33.40;13.35;;;-3273.30;97.00;;;;;;5024157;28;19936;-72
2022/12/12 04:37:06;;;;;;;37.92;14.65;;;-3273.30;97.00;;;;;;5026458;28;20029;-71
2022/12/12 04:39:35;;;;;;;38.03;15.85;;;-3273.30;97.00;;;;;;5026513;28;20099;-72
2022/12/12 04:42:04;;;;;;;38.67;15.93;;;-3273.30;97.00;;;;;;5029007;28;20034;-72
2022/12/12 04:44:32;;;;;;;35.75;15.73;;;-3273.20;97.00;;;;;;5025922;28;20052;-72
2022/12/12 04:47:00;;;;;;;40.45;16.23;;;-3273.30;97.10;;;;;;5027340;28;20025;-72
2022/12/12 04:49:29;;;;;;;35.40;14.40;;;-3273.30;97.10;;;;;;5024021;28;20025;-73
2022/12/12 04:52:08;;;;;;;40.95;17.25;;;-3273.30;97.10;;;;;;5027220;28;20062;-72
2022/12/12 04:54:49;;;;;;;44.35;17.85;;;-3273.20;97.00;;;;;;5027992;28;20022;-72
2022/12/12 04:57:24;;;;;;;41.85;15.32;;;-3273.10;96.90;;;;;;5025420;28;20641;-72
2022/12/12 04:59:50;;;;;;;42.28;16.08;;;-3273.00;96.80;;;;;;5025226;28;20033;-73
2022/12/12 05:02:29;;;;;;;35.72;15.65;;;-3272.90;96.80;;;;;;5031146;28;20037;-72
2022/12/12 05:05:07;;;;;;;39.42;15.93;;;-3272.80;96.80;;;;;;5038016;28;20087;-72
2022/12/12 05:07:36;;;;;;;39.53;14.57;;;-3272.70;96.90;;;;;;5022446;28;20029;-73
2022/12/12 05:10:06;;;;;;;32.08;15.35;;;-3272.70;96.90;;;;;;5035300;28;20041;-72
2022/12/12 05:12:41;;;;;;;42.80;16.70;;;-3272.60;96.90;;;;;;5020163;28;20018;-72
2022/12/12 05:15:08;;;;;;;37.22;15.05;;;-3272.60;96.90;;;;;;5010260;28;20034;-72
2022/12/12 05:18:06;;;;;;;38.83;16.42;;;-3272.60;96.90;;;;;;5030810;28;20041;-73
2022/12/12 05:20:31;;;;;;;39.17;15.35;;;-3272.50;96.90;;;;;;5028175;28;20049;-72
2022/12/12 05:22:57;;;;;;;41.70;15.85;;;-3272.50;96.90;;;;;;5020536;28;20439;-74
2022/12/12 05:25:23;;;;;;;40.97;15.60;;;-3272.50;96.90;;;;;;5020560;28;20029;-74
2022/12/12 05:27:48;;;;;;;41.58;16.25;;;-3272.40;97.00;;;;;;5026792;28;20029;-72
2022/12/12 05:30:14;;;;;;;37.67;14.85;;;-3272.40;97.00;;;;;;5020328;28;20374;-71
2022/12/12 05:32:39;;;;;;;41.92;14.85;;;-3272.40;97.10;;;;;;5039197;28;20021;-72
2022/12/12 05:35:06;;;;;;;43.35;15.50;;;-3272.40;97.00;;;;;;5028194;28;20073;-72
2022/12/12 05:37:31;;;;;;;44.30;15.18;;;-3272.30;97.00;;;;;;5016236;28;20062;-72
2022/12/12 05:39:57;;;;;;;38.90;15.75;;;-3272.30;97.20;;;;;;5022844;28;20342;-72
2022/12/12 05:42:22;;;;;;;43.60;15.82;;;-3272.30;97.20;;;;;;5010933;28;20449;-72
2022/12/12 05:44:48;;;;;;;42.70;15.38;;;-3272.30;97.20;;;;;;5016566;28;20030;-72
2022/12/12 05:47:13;;;;;;;40.15;14.50;;;-3272.20;97.10;;;;;;5032826;28;20021;-72
2022/12/12 05:49:39;;;;;;;33.08;14.35;;;-3272.10;97.10;;;;;;5024270;28;20041;-72
2022/12/12 05:52:05;;;;;;;39.83;15.63;;;-3272.10;97.30;;;;;;5023563;28;20133;-73
2022/12/12 05:54:30;;;;;;;39.85;15.45;;;-3272.00;97.30;;;;;;5030579;28;20459;-72
2022/12/12 05:56:56;;;;;;;42.70;15.20;;;-3272.00;97.30;;;;;;5023773;28;20038;-72
2022/12/12 05:59:21;;;;;;;38.33;15.30;;;-3272.00;97.30;;;;;;5024120;28;20033;-73
2022/12/12 06:01:47;;;;;;;42.05;14.85;;;-3271.90;97.30;;;;;;5028458;28;20462;-72
2022/12/12 06:04:12;;;;;;;36.97;15.68;;;-3271.90;97.40;;;;;;5030218;28;20212;-72
2022/12/12 06:06:38;;;;;;;38.13;14.35;;;-3271.80;97.30;;;;;;5020256;28;20108;-72
2022/12/12 06:09:03;;;;;;;37.17;13.75;;;-3271.70;97.30;;;;;;5032161;28;20527;-73
2022/12/12 06:11:29;;;;;;;39.10;15.32;;;-3271.60;97.40;;;;;;5030358;28;20030;-73
2022/12/12 06:13:54;;;;;;;38.03;14.60;;;-3271.60;97.30;;;;;;5025384;28;20140;-72
2022/12/12 06:16:20;;;;;;;39.00;14.10;;;-3271.50;97.40;;;;;;5017576;28;20033;-73
2022/12/12 06:18:53;;;;;;;35.85;13.75;;;-3271.40;97.30;;;;;;5024416;28;20045;-72
2022/12/12 06:21:19;;;;;;;34.70;14.40;;;-3271.40;97.40;;;;;;5019401;28;20033;-72
2022/12/12 06:23:45;;;;;;;36.65;13.85;;;-3271.30;97.30;;;;;;5025436;28;20069;-72
2022/12/12 06:26:12;;;;;;;33.03;13.52;;;-3271.30;97.30;;;;;;5025820;28;20124;-72
2022/12/12 06:28:38;;;;;;;44.08;16.63;;;-3271.20;97.20;;;;;;5018829;28;20045;-73
2022/12/12 06:31:04;;;;;;;31.38;14.05;;;-3271.10;97.20;;;;;;5027797;28;20087;-72
2022/12/12 06:33:34;;;;;;;36.22;13.35;;;-3271.10;97.20;;;;;;5022558;28;20136;-72
2022/12/12 06:36:11;;;;;;;36.63;15.23;;;-3271.10;97.30;;;;;;5022118;28;20143;-71
2022/12/12 06:38:37;;;;;;;41.47;16.38;;;-3271.10;97.30;;;;;;5014383;28;20029;-71
2022/12/12 06:41:08;;;;;;;36.72;14.90;;;-3271.10;97.30;;;;;;5016089;28;20725;-73
2022/12/12 06:43:34;;;;;;;44.30;14.27;;;-3271.00;97.20;;;;;;5030172;28;20093;-72
2022/12/12 06:46:01;;;;;;;43.03;15.18;;;-3270.90;97.10;;;;;;5027157;28;20085;-72
2022/12/12 06:48:27;;;;;;;37.35;14.75;;;-3270.90;97.20;;;;;;5027761;28;20142;-71
2022/12/12 06:50:53;;;;;;;42.55;15.05;;;-3270.90;97.20;;;;;;5022246;28;20022;-73
2022/12/12 06:53:18;;;;;;;43.75;14.98;;;-3270.90;97.20;;;;;;5022974;28;20039;-71
2022/12/12 06:55:44;;;;;;;41.63;15.30;;;-3270.90;97.20;;;;;;5020124;28;20033;-72
2022/12/12 06:58:09;;;;;;;38.55;15.25;;;-3270.80;97.10;;;;;;5011571;28;20029;-72
2022/12/12 07:00:35;;;;;;;39.25;14.73;;;-3270.80;97.00;;;;;;5015072;28;20045;-71
2022/12/12 07:03:01;;;;;;;45.15;15.80;;;-3270.80;97.00;;;;;;5018278;28;20030;-70
2022/12/12 07:05:27;;;;;;;40.60;14.40;;;-3270.80;97.10;;;;;;5020589;28;20415;-71
2022/12/12 07:07:52;;;;;;;39.97;15.27;;;-3270.70;97.00;;;;;;5016172;28;20079;-71
2022/12/12 07:10:18;;;;;;;43.00;14.45;;;-3270.70;97.00;;;;;;5025398;28;20034;-71
2022/12/12 07:12:44;;;;;;;39.33;14.68;;;-3270.70;97.00;;;;;;5021932;28;20099;-71
2022/12/12 07:15:10;;;;;;;42.25;15.65;;;-3270.60;96.90;;;;;;5021136;28;20029;-71
2022/12/12 07:17:35;;;;;;;46.60;15.30;;;-3270.60;97.00;;;;;;5025990;28;20365;-71
2022/12/12 07:20:00;;;;;;;42.72;14.98;;;-3270.60;96.90;;;;;;5018528;28;20133;-71
2022/12/12 07:22:26;;;;;;;48.30;14.60;;;-3270.60;96.90;;;;;;5011868;28;20082;-71
2022/12/12 07:24:51;;;;;;;45.90;15.25;;;-3270.60;96.90;;;;;;5018392;28;20124;-71
2022/12/12 07:27:18;;;;;;;38.30;14.35;;;-3270.60;96.90;;;;;;5024546;28;20097;-71
2022/12/12 07:29:43;;;;;;;44.13;15.80;;;-3270.50;96.90;;;;;;5011358;28;20418;-71
2022/12/12 07:32:09;;;;;;;45.30;14.90;;;-3270.60;96.90;;;;;;5033628;28;20060;-71
2022/12/12 07:34:35;;;;;;;46.80;16.10;;;-3270.50;96.80;;;;;;5015867;28;20446;-74
2022/12/12 07:37:00;;;;;;;46.17;16.50;;;-3270.50;96.90;;;;;;5010719;28;20478;-72
2022/12/12 07:39:29;;;;;;;47.33;16.63;;;-3270.50;96.80;;;;;;5021411;28;20575;-72
2022/12/12 07:41:54;;;;;;;43.97;16.13;;;-3270.50;96.80;;;;;;5006245;28;20041;-72
2022/12/12 07:44:20;;;;;;;42.65;15.43;;;-3270.60;96.80;;;;;;5026078;28;20059;-72
2022/12/12 07:46:45;;;;;;;45.60;15.18;;;-3270.60;96.80;;;;;;5010859;28;20034;-72
2022/12/12 07:49:11;;;;;;;45.70;15.43;;;-3270.60;96.90;;;;;;5025050;28;20076;-72
2022/12/12 07:51:37;;;;;;;44.63;16.88;;;-3270.60;96.80;;;;;;5017647;28;20034;-72
2022/12/12 07:54:03;;;;;;;47.70;15.80;;;-3270.60;96.80;;;;;;5038321;28;20033;-72
2022/12/12 07:56:28;;;;;;;52.97;15.75;;;-3270.60;96.70;;;;;;5029562;28;20124;-72
2022/12/12 07:58:54;;;;;;;53.80;16.02;;;-3270.60;96.70;;;;;;5020136;28;20128;-72
2022/12/12 08:01:26;;;;;;;51.95;16.30;;;-3270.60;96.70;;;;;;5018754;28;20434;-71
2022/12/12 08:03:53;;;;;;;50.85;15.75;;;-3270.60;96.70;;;;;;5026044;28;20443;-71
2022/12/12 08:06:20;;;;;;;44.13;15.80;;;-3270.60;96.70;;;;;;5034312;28;20026;-71
2022/12/12 08:08:46;;;;;;;38.72;16.10;;;-3270.60;96.70;;;;;;5022799;28;20041;-72
2022/12/12 08:11:14;;;;;;;51.40;15.27;;;-3270.70;96.70;;;;;;5023550;28;20379;-72
2022/12/12 08:13:40;;;;;;;42.10;14.23;;;-3270.60;96.60;;;;;;5035841;28;20025;-72
2022/12/12 08:16:12;;;;;;;52.72;16.15;;;-3270.70;96.60;;;;;;5030323;28;20424;-71
2022/12/12 08:18:37;;;;;;;46.13;14.27;;;-3270.70;96.60;;;;;;5021585;28;20101;-72
2022/12/12 08:21:11;;;;;;;51.28;14.85;;;-3270.80;96.70;;;;;;5024343;28;20429;-72
2022/12/12 08:23:37;;;;;;;49.60;15.85;;;-3270.80;96.70;;;;;;5026495;28;20129;-73
2022/12/12 08:26:05;;;;;;;53.53;15.18;;;-3270.90;96.70;;;;;;5019835;28;21493;-71
2022/12/12 08:28:30;;;;;;;54.15;15.98;;;-3271.00;96.80;;;;;;5024674;28;20059;-71
2022/12/12 08:30:59;;;;;;;55.88;16.45;;;-3271.10;96.80;;;;;;5026667;28;20049;-72
2022/12/12 08:33:25;;;;;;;44.38;15.80;;;-3271.20;96.80;;;;;;5026891;28;20173;-72
2022/12/12 08:35:50;;;;;;;57.65;17.63;;;-3271.20;96.60;;;;;;5024305;28;20117;-71
2022/12/12 08:38:16;;;;;;;57.58;17.25;;;-3271.30;96.80;;;;;;5020208;28;20443;-72
2022/12/12 08:40:41;;;;;;;60.22;16.92;;;-3271.40;96.80;;;;;;5026056;28;20061;-71
2022/12/12 08:43:08;;;;;;;63.55;17.48;;;-3271.40;96.70;;;;;;5026137;28;20434;-71
2022/12/12 08:45:36;;;;;;;58.35;16.73;;;-3271.50;96.80;;;;;;5031562;28;20104;-71
2022/12/12 08:48:01;;;;;;;63.47;16.88;;;-3271.50;96.70;;;;;;5025419;28;20025;-71
2022/12/12 08:50:27;;;;;;;69.18;18.85;;;-3271.50;96.60;;;;;;5029157;28;20061;-71
2022/12/12 08:52:53;;;;;;;61.38;19.55;;;-3271.50;96.60;;;;;;5026316;28;20148;-73
2022/12/12 08:55:19;;;;;;;64.80;18.95;;;-3271.50;96.60;;;;;;5027930;28;20220;-72
2022/12/12 08:57:44;;;;;;;61.83;19.38;;;-3271.60;96.70;;;;;;5017044;28;20436;-72
2022/12/12 09:00:10;;;;;;;61.60;17.63;;;-3271.70;96.70;;;;;;5017311;28;20064;-72
2022/12/12 09:02:36;;;;;;;62.92;18.85;;;-3271.70;96.70;;;;;;5018701;28;20041;-73
2022/12/12 09:05:01;;;;;;;65.65;19.08;;;-3271.80;96.70;;;;;;5018459;28;20381;-72
2022/12/12 09:07:27;;;;;;;70.85;19.08;;;-3271.80;96.80;;;;;;5022004;28;20353;-72
2022/12/12 09:09:52;;;;;;;65.13;19.00;;;-3271.90;96.90;;;;;;5022901;28;20077;-72
2022/12/12 09:12:18;;;;;;;75.80;18.80;;;-3271.90;96.80;;;;;;5013143;28;20079;-72
2022/12/12 09:14:43;;;;;;;69.07;19.05;;;-3272.00;96.90;;;;;;5005136;28;20105;-73
2022/12/12 09:17:09;;;;;;;74.50;19.45;;;-3272.10;96.90;;;;;;5020831;28;20030;-72
2022/12/12 09:19:34;;;;;;;75.95;21.38;;;-3272.20;97.10;;;;;;5023395;28;20068;-72
2022/12/12 09:21:59;;;;;;;72.97;20.38;;;-3272.40;97.20;;;;;;5031098;28;20053;-72
2022/12/12 09:24:25;;;;;;;81.78;20.25;;;-3272.50;97.30;;;;;;5022085;28;20033;-71
2022/12/12 09:26:50;;;;;;;77.30;20.98;;;-3272.60;97.30;;;;;;5019159;28;20534;-70
2022/12/12 09:29:16;;;;;;;77.32;20.90;;;-3272.70;97.30;;;;;;5021827;28;20332;-73
2022/12/12 09:31:42;;;;;;;76.68;20.42;;;-3272.80;97.30;;;;;;5024761;28;20086;-72
2022/12/12 09:34:08;;;;;;;78.03;21.10;;;-3273.00;97.30;;;;;;5025004;28;20306;-72
2022/12/12 09:36:34;;;;;;;85.97;21.77;;;-3273.00;97.20;;;;;;5022088;28;20045;-71
2022/12/12 09:38:59;;;;;;;88.40;23.27;;;-3273.10;97.20;;;;;;5020240;28;20366;-70
2022/12/12 09:41:26;;;;;;;98.50;24.23;;;-3273.30;97.30;;;;;;5023310;28;20050;-72
2022/12/12 09:44:14;;;;;;;107.00;24.10;;;-3273.40;97.30;;;;;;5016448;28;20152;-71
2022/12/12 09:46:54;;;;;;;114.57;25.33;;;-3273.60;97.20;;;;;;5023982;28;20492;-72
2022/12/12 09:49:41;;;;;;;105.55;26.60;;;-3273.80;97.20;;;;;;5017346;28;20108;-72
2022/12/12 09:52:12;;;;;;;104.82;25.05;;;-3273.90;96.90;;;;;;5015014;28;20021;-71
2022/12/12 09:54:38;;;;;;;111.72;25.85;;;-3274.10;97.00;;;;;;5024197;28;20092;-75
2022/12/12 09:57:31;;;;;;;110.70;26.38;;;-3274.20;96.90;;;;;;5020862;28;20033;-70
2022/12/12 10:00:09;;;;;;;90.32;25.13;;;-3274.30;96.50;;;;;;5037981;28;20382;-71
2022/12/12 10:03:00;;;;;;;108.43;26.95;;;-3274.60;96.50;;;;;;5024260;28;20021;-73
2022/12/12 10:05:33;;;;;;;98.05;25.95;;;-3274.80;96.50;;;;;;5017186;28;20324;-72
2022/12/12 10:08:16;;;;;;;96.50;25.02;;;-3274.90;96.00;;;;;;5026463;28;20385;-70
2022/12/12 10:10:46;;;;;;;89.95;24.73;;;-3275.00;95.70;;;;;;5015960;28;20033;-70
2022/12/12 10:13:24;;;;;;;83.75;25.92;;;-3275.10;95.40;;;;;;5021690;28;20330;-70
2022/12/12 10:16:03;;;;;;;88.50;26.10;;;-3275.20;95.00;;;;;;5019575;28;20040;-71
2022/12/12 10:18:34;;;;;;;73.10;25.00;;;-3275.20;94.50;;;;;;5025831;28;20025;-71
2022/12/12 10:21:03;;;;;;;77.18;26.98;;;-3275.20;94.10;;;;;;5023821;28;20048;-70
2022/12/12 10:23:42;;;;;;;79.57;26.17;;;-3275.30;94.10;;;;;;5017844;28;20053;-74
2022/12/12 10:26:15;;;;;;;71.90;26.45;;;-3275.30;94.10;;;;;;5024472;28;20138;-74
2022/12/12 10:28:41;;;;;;;71.80;25.27;;;-3275.30;93.70;;;;;;5023211;28;20107;-71
2022/12/12 10:31:24;;;;;;;73.43;24.88;;;-3275.30;93.50;;;;;;5020577;28;20033;-74
2022/12/12 10:34:00;;;;;;;56.03;23.00;;;-3275.40;93.70;;;;;;5017136;28;20117;-73
2022/12/12 10:36:52;;;;;;;60.17;23.23;;;-3275.50;93.60;;;;;;5030670;28;20393;-73
2022/12/12 10:39:41;;;;;;;57.53;23.15;;;-3275.50;93.50;;;;;;5018776;28;20383;-74
2022/12/12 10:42:25;;;;;;;54.50;23.20;;;-3275.50;93.30;;;;;;5020122;28;20037;-72
2022/12/12 10:45:28;;;;;;;54.42;22.17;;;-3275.60;93.30;;;;;;5021787;28;20076;-71
2022/12/12 10:47:54;;;;;;;52.83;21.08;;;-3275.70;93.20;;;;;;5021008;28;20021;-71
2022/12/12 10:50:34;;;;;;;54.45;22.13;;;-3275.80;93.10;;;;;;5024216;28;20032;-73
2022/12/12 10:53:02;;;;;;;53.63;22.70;;;-3275.80;92.70;;;;;;5025045;28;20068;-73
2022/12/12 10:55:46;;;;;;;51.90;22.10;;;-3275.90;92.50;;;;;;5024851;28;20109;-73
2022/12/12 10:58:12;;;;;;;47.35;20.20;;;-3276.00;92.40;;;;;;5021197;28;20381;-73
2022/12/12 11:00:40;;;;;;;47.30;20.55;;;-3276.00;92.20;;;;;;5021778;28;20109;-73
2022/12/12 11:03:10;;;;;;;46.83;19.95;;;-3276.00;91.60;;;;;;5028194;28;20434;-73
2022/12/12 11:05:38;;;;;;;49.30;20.20;;;-3276.10;91.80;;;;;;5029500;28;20104;-74
2022/12/12 11:08:16;;;;;;;41.90;18.80;;;-3276.00;91.00;;;;;;5019714;28;20139;-74
2022/12/12 11:10:41;;;;;;;47.72;19.77;;;-3276.20;91.30;;;;;;5021394;28;20680;-73
2022/12/12 11:13:10;;;;;;;45.22;19.75;;;-3276.20;90.80;;;;;;5015206;28;20037;-73
2022/12/12 11:15:44;;;;;;;45.00;19.40;;;-3276.30;90.70;;;;;;5027392;28;20100;-72
2022/12/12 11:18:18;;;;;;;44.75;18.02;;;-3276.30;90.10;;;;;;5022943;28;20036;-71
2022/12/12 11:20:50;;;;;;;40.53;17.42;;;-3276.40;90.20;;;;;;5022777;28;20037;-72
2022/12/12 11:23:21;;;;;;;39.83;17.60;;;-3276.50;89.50;;;;;;5020543;28;20481;-72
2022/12/12 11:26:01;;;;;;;36.33;16.20;;;-3276.60;88.70;;;;;;5018211;28;20088;-73
2022/12/12 11:28:35;;;;;;;33.83;15.98;;;0.00;88.60;;;;;;5035687;28;20033;-74
2022/12/12 11:31:05;;;;;;;29.98;15.98;;;0.10;88.60;;;;;;5021316;28;20113;-70
2022/12/12 11:33:37;;;;;;;34.83;15.75;;;0.30;88.10;;;;;;5021050;28;20052;-73
2022/12/12 11:36:05;;;;;;;32.65;15.20;;;0.40;88.00;;;;;;5019801;28;20071;-73
2022/12/12 11:38:37;;;;;;;28.42;14.23;;;0.50;87.00;;;;;;5027460;28;20037;-73
2022/12/12 11:41:07;;;;;;;34.03;16.33;;;0.60;86.80;;;;;;5025874;28;20026;-73
2022/12/12 11:43:50;;;;;;;31.30;15.52;;;0.70;86.00;;;;;;5023098;28;20060;-73
2022/12/12 11:46:19;;;;;;;29.35;15.00;;;0.60;85.50;;;;;;5025175;28;20025;-74
2022/12/12 11:48:50;;;;;;;32.13;15.07;;;0.60;84.40;;;;;;5025934;28;20442;-74
2022/12/12 11:51:33;;;;;;;30.23;14.38;;;0.70;83.90;;;;;;5032628;28;20025;-73
2022/12/12 11:54:00;;;;;;;33.15;15.95;;;0.70;84.30;;;;;;5033355;28;20029;-74
2022/12/12 11:56:41;;;;;;;32.47;14.82;;;0.60;84.00;;;;;;5020440;28;20432;-74
2022/12/12 11:59:09;;;;;;;31.42;15.88;;;0.70;84.60;;;;;;5039109;28;20028;-74
2022/12/12 12:02:12;;;;;;;30.60;15.35;;;0.80;84.30;;;;;;5030087;28;20389;-75
2022/12/12 12:04:58;;;;;;;30.92;15.00;;;0.80;83.90;;;;;;5022256;28;20033;-75
2022/12/12 12:07:41;;;;;;;25.33;13.25;;;0.80;84.00;;;;;;5022945;28;20025;-72
2022/12/12 12:10:16;;;;;;;29.00;14.55;;;1.00;84.10;;;;;;5019487;28;20124;-73
2022/12/12 12:13:18;;;;;;;27.23;14.30;;;0.90;82.90;;;;;;5019436;28;20033;-72
2022/12/12 12:15:54;;;;;;;27.35;13.75;;;0.90;82.80;;;;;;5018642;28;20197;-73
2022/12/12 12:18:46;;;;;;;24.77;12.85;;;1.10;82.80;;;;;;5011279;28;20081;-75
2022/12/12 12:21:25;;;;;;;25.40;12.60;;;1.00;82.10;;;;;;5022119;28;20085;-74
2022/12/12 12:24:21;;;;;;;26.45;13.38;;;1.10;81.30;;;;;;5021856;28;20050;-69
2022/12/12 12:27:05;;;;;;;33.25;13.88;;;1.10;82.30;;;;;;5030430;28;20025;-70
2022/12/12 12:30:10;;;;;;;27.83;12.88;;;1.10;81.60;;;;;;5019848;28;20041;-72
2022/12/12 12:33:19;;;;;;;23.23;11.68;;;1.10;80.90;;;;;;5024799;28;20041;-74
2022/12/12 12:35:55;;;;;;;27.35;12.77;;;0.70;81.00;;;;;;5022039;28;20064;-73